createdAt,value
2019-01-31T00:02:30.858Z,16.00
2019-01-31T00:05:42.718Z,14.90
2019-01-31T00:08:51.490Z,15.40
2019-01-31T00:11:45.205Z,22.13
2019-01-31T00:14:51.550Z,26.33
2019-01-31T00:17:37.695Z,22.93
2019-01-31T00:20:32.732Z,15.20
2019-01-31T00:24:10.153Z,13.30
2019-01-31T00:26:52.967Z,12.73
2019-01-31T00:29:49.802Z,14.13
2019-01-31T00:32:54.825Z,13.37
2019-01-31T00:36:05.251Z,12.87
2019-01-31T00:39:26.357Z,11.90
2019-01-31T00:42:42.889Z,13.23
2019-01-31T00:45:51.683Z,10.50
2019-01-31T00:49:08.265Z,11.50
2019-01-31T00:51:54.699Z,12.13
2019-01-31T00:54:50.771Z,12.07
2019-01-31T00:58:11.905Z,12.70
2019-01-31T01:00:58.781Z,13.93
2019-01-31T01:04:09.289Z,12.43
2019-01-31T01:07:10.586Z,10.60
2019-01-31T01:09:54.079Z,9.33
2019-01-31T01:12:53.412Z,12.80
2019-01-31T01:15:41.910Z,10.80
2019-01-31T01:18:52.494Z,14.37
2019-01-31T01:22:14.781Z,23.43
2019-01-31T01:25:07.109Z,42.57
2019-01-31T01:28:07.452Z,42.50
2019-01-31T01:31:22.571Z,37.07
2019-01-31T01:34:27.744Z,46.60
2019-01-31T01:37:22.324Z,62.23
2019-01-31T01:40:32.925Z,43.00
2019-01-31T01:43:24.585Z,33.03
2019-01-31T01:46:16.354Z,22.50
2019-01-31T01:49:17.209Z,13.40
2019-01-31T01:52:14.939Z,13.03
2019-01-31T01:54:59.797Z,14.97
2019-01-31T01:58:12.340Z,11.87
2019-01-31T02:01:12.626Z,13.80
2019-01-31T02:04:37.969Z,11.37
2019-01-31T02:07:52.175Z,11.57
2019-01-31T02:10:31.525Z,13.50
2019-01-31T02:13:32.128Z,14.67
2019-01-31T02:16:44.524Z,17.33
2019-01-31T02:19:45.191Z,25.87
2019-01-31T02:22:47.321Z,23.93
2019-01-31T02:25:27.729Z,32.23
2019-01-31T02:28:41.417Z,19.40
2019-01-31T02:31:49.447Z,17.43
2019-01-31T02:34:57.894Z,34.40
2019-01-31T02:37:41.516Z,14.40
2019-01-31T02:40:53.289Z,8.80
2019-01-31T02:43:36.431Z,7.50
2019-01-31T02:46:52.900Z,6.17
2019-01-31T02:49:36.530Z,7.97
2019-01-31T02:52:47.052Z,9.17
2019-01-31T02:56:01.811Z,6.60
2019-01-31T02:59:16.271Z,7.17
2019-01-31T03:02:11.091Z,5.73
2019-01-31T03:05:18.665Z,6.17
2019-01-31T03:08:19.383Z,10.97
2019-01-31T03:11:22.155Z,8.73
2019-01-31T03:14:21.888Z,8.73
2019-01-31T03:17:26.500Z,7.30
2019-01-31T03:20:23.936Z,6.20
2019-01-31T03:23:08.831Z,6.03
2019-01-31T03:26:10.394Z,6.17
2019-01-31T03:29:12.578Z,10.43
2019-01-31T03:32:23.346Z,8.63
2019-01-31T03:35:32.828Z,8.20
2019-01-31T03:38:31.679Z,7.70
2019-01-31T03:41:32.402Z,8.13
2019-01-31T03:44:30.181Z,7.57
2019-01-31T03:47:37.115Z,5.60
2019-01-31T03:50:15.494Z,6.53
2019-01-31T03:53:10.132Z,6.53
2019-01-31T03:56:08.585Z,7.87
2019-01-31T03:59:02.365Z,11.10
2019-01-31T04:02:23.522Z,15.70
2019-01-31T04:05:12.564Z,14.67
2019-01-31T04:07:42.363Z,12.33
2019-01-31T04:10:19.156Z,12.33
2019-01-31T04:12:43.486Z,11.20
2019-01-31T04:15:13.336Z,11.17
2019-01-31T04:17:42.946Z,10.80
2019-01-31T04:20:12.909Z,10.43
2019-01-31T04:22:42.454Z,10.77
2019-01-31T04:25:12.141Z,9.40
2019-01-31T04:27:41.785Z,8.77
2019-01-31T04:30:14.536Z,7.33
2019-01-31T04:32:44.120Z,7.67
2019-01-31T04:35:13.876Z,6.77
2019-01-31T04:37:43.444Z,10.97
2019-01-31T04:40:13.118Z,10.83
2019-01-31T04:42:42.770Z,11.67
2019-01-31T04:45:12.708Z,11.40
2019-01-31T04:47:42.336Z,12.30
2019-01-31T04:50:13.705Z,11.87
2019-01-31T04:52:43.320Z,11.70
2019-01-31T04:55:13.164Z,11.40
2019-01-31T04:57:42.856Z,11.40
2019-01-31T05:00:15.529Z,11.20
2019-01-31T05:02:45.227Z,11.00
2019-01-31T05:05:15.183Z,10.73
2019-01-31T05:07:44.805Z,9.00
2019-01-31T05:10:14.859Z,11.03
2019-01-31T05:12:44.468Z,16.13
2019-01-31T05:15:14.972Z,12.57
2019-01-31T05:17:44.540Z,10.90
2019-01-31T05:20:18.522Z,11.17
2019-01-31T05:22:48.343Z,9.70
2019-01-31T05:25:17.902Z,10.97
2019-01-31T05:27:47.612Z,9.50
2019-01-31T05:30:17.607Z,39.17
2019-01-31T05:32:47.196Z,184.77
2019-01-31T05:35:16.925Z,101.53
2019-01-31T05:37:46.507Z,57.40
2019-01-31T05:40:16.534Z,18.00
2019-01-31T05:42:46.197Z,32.13
2019-01-31T05:45:16.846Z,63.40
2019-01-31T05:47:47.066Z,36.93
2019-01-31T05:50:18.317Z,25.47
2019-01-31T05:52:47.895Z,38.43
2019-01-31T05:55:17.669Z,84.47
2019-01-31T05:57:47.376Z,24.07
2019-01-31T06:00:27.316Z,9.40
2019-01-31T06:02:57.157Z,11.33
2019-01-31T06:05:26.788Z,14.70
2019-01-31T06:07:56.707Z,35.93
2019-01-31T06:10:26.403Z,68.10
2019-01-31T06:12:55.988Z,58.57
2019-01-31T06:15:25.582Z,18.50
2019-01-31T06:17:55.407Z,50.27
2019-01-31T06:20:25.848Z,30.40
2019-01-31T06:22:55.421Z,48.13
2019-01-31T06:25:25.078Z,44.47
2019-01-31T06:27:54.710Z,68.43
2019-01-31T06:30:24.591Z,82.80
2019-01-31T06:32:54.346Z,127.30
2019-01-31T06:35:24.065Z,165.47
2019-01-31T06:37:53.653Z,128.03
2019-01-31T06:40:23.532Z,103.00
2019-01-31T06:42:53.119Z,98.70
2019-01-31T06:45:23.113Z,61.13
2019-01-31T06:47:52.971Z,24.10
2019-01-31T06:50:22.579Z,88.43
2019-01-31T06:52:52.163Z,36.47
2019-01-31T06:55:21.944Z,13.40
2019-01-31T06:57:51.568Z,12.13
2019-01-31T07:00:22.733Z,12.53
2019-01-31T07:02:52.383Z,57.33
2019-01-31T07:05:21.961Z,30.37
2019-01-31T07:07:51.569Z,26.57
2019-01-31T07:10:23.642Z,11.07
2019-01-31T07:12:53.347Z,29.50
2019-01-31T07:15:22.950Z,15.93
2019-01-31T07:17:52.626Z,10.43
2019-01-31T07:20:22.212Z,10.63
2019-01-31T07:22:51.994Z,11.90
2019-01-31T07:25:23.692Z,14.30
2019-01-31T07:27:53.267Z,13.00
2019-01-31T07:30:26.364Z,14.63
2019-01-31T07:32:55.169Z,21.47
2019-01-31T07:35:24.865Z,10.03
2019-01-31T07:37:54.670Z,21.73
2019-01-31T07:40:24.955Z,22.70
2019-01-31T07:43:10.363Z,100.47
2019-01-31T07:45:40.257Z,188.50
2019-01-31T07:48:10.141Z,19.27
2019-01-31T07:50:40.568Z,20.43
2019-01-31T07:53:12.807Z,14.90
2019-01-31T07:55:42.067Z,188.57
2019-01-31T07:58:15.091Z,16.17
2019-01-31T08:00:45.078Z,102.90
2019-01-31T08:03:14.739Z,192.27
2019-01-31T08:05:44.557Z,26.57
2019-01-31T08:08:15.580Z,17.53
2019-01-31T08:10:45.599Z,29.00
2019-01-31T08:13:15.855Z,20.90
2019-01-31T08:15:46.813Z,49.57
2019-01-31T08:18:17.194Z,63.80
2019-01-31T08:20:48.318Z,78.30
2019-01-31T08:23:17.911Z,117.73
2019-01-31T08:25:47.722Z,44.50
2019-01-31T08:28:18.653Z,219.80
2019-01-31T08:30:53.023Z,101.60
2019-01-31T08:33:23.325Z,105.23
2019-01-31T08:35:56.067Z,27.50
2019-01-31T08:38:26.073Z,120.63
2019-01-31T08:40:56.389Z,37.90
2019-01-31T08:43:27.351Z,30.97
2019-01-31T08:45:57.763Z,27.63
2019-01-31T08:48:27.622Z,25.70
2019-01-31T08:50:57.645Z,22.83
2019-01-31T08:53:28.228Z,35.07
2019-01-31T08:55:58.166Z,19.60
2019-01-31T08:58:28.036Z,20.97
2019-01-31T09:00:58.276Z,21.53
2019-01-31T09:03:28.131Z,21.23
2019-01-31T09:05:58.012Z,20.47
2019-01-31T09:08:27.854Z,22.20
2019-01-31T09:11:01.886Z,21.37
2019-01-31T09:13:31.735Z,22.40
2019-01-31T09:16:01.715Z,20.97
2019-01-31T09:18:31.364Z,20.83
2019-01-31T09:21:27.440Z,22.23
2019-01-31T09:24:21.265Z,10.27
2019-01-31T09:27:39.011Z,22.57
2019-01-31T09:30:46.226Z,23.73
2019-01-31T09:34:00.643Z,21.87
2019-01-31T09:37:18.810Z,23.17
2019-01-31T09:39:58.957Z,28.03
2019-01-31T09:42:41.281Z,31.00
2019-01-31T09:45:46.152Z,40.27
2019-01-31T09:48:52.228Z,35.90
2019-01-31T09:51:56.878Z,43.57
2019-01-31T09:55:07.245Z,53.83
2019-01-31T09:58:02.570Z,52.40
2019-01-31T10:01:07.633Z,48.53
2019-01-31T10:03:53.001Z,43.23
2019-01-31T10:07:03.871Z,50.00
2019-01-31T10:09:55.025Z,46.50
2019-01-31T10:12:50.400Z,51.10
2019-01-31T10:15:48.417Z,34.87
2019-01-31T10:18:27.284Z,39.97
2019-01-31T10:21:21.901Z,47.20
2019-01-31T10:24:30.932Z,45.30
2019-01-31T10:27:54.043Z,43.77
2019-01-31T10:31:06.938Z,45.30
2019-01-31T10:34:31.442Z,44.77
2019-01-31T10:38:08.815Z,41.93
2019-01-31T10:41:15.032Z,45.47
2019-01-31T10:44:30.189Z,44.03
2019-01-31T10:47:28.514Z,39.43
2019-01-31T10:50:33.213Z,42.53
2019-01-31T10:53:48.334Z,40.83
2019-01-31T10:56:48.544Z,40.47
2019-01-31T10:59:30.296Z,46.37
2019-01-31T11:02:49.395Z,45.43
2019-01-31T11:06:02.873Z,48.33
2019-01-31T11:09:10.684Z,49.87
2019-01-31T11:12:23.288Z,41.67
2019-01-31T11:16:00.885Z,42.67
2019-01-31T11:19:12.657Z,43.23
2019-01-31T11:22:30.452Z,43.97
2019-01-31T11:25:52.938Z,44.63
2019-01-31T11:28:53.042Z,47.80
2019-01-31T11:32:00.332Z,53.53
2019-01-31T11:35:14.177Z,49.40
2019-01-31T11:38:27.660Z,47.97
2019-01-31T11:41:27.354Z,52.83
2019-01-31T11:44:33.284Z,53.73
2019-01-31T11:47:40.651Z,54.20
2019-01-31T11:50:45.264Z,52.20
2019-01-31T11:54:00.038Z,51.30
2019-01-31T11:57:34.006Z,50.20
2019-01-31T12:00:04.718Z,46.17
2019-01-31T12:02:34.367Z,45.27
2019-01-31T12:05:05.136Z,45.90
2019-01-31T12:07:36.612Z,47.73
2019-01-31T12:10:07.383Z,46.77
2019-01-31T12:12:37.164Z,43.93
2019-01-31T12:15:07.621Z,46.70
2019-01-31T12:17:38.207Z,50.97
2019-01-31T12:20:09.266Z,46.53
2019-01-31T12:22:39.225Z,49.73
2019-01-31T12:25:09.200Z,49.23
2019-01-31T12:27:39.158Z,53.43
2019-01-31T12:30:14.230Z,50.07
2019-01-31T12:32:43.858Z,53.87
2019-01-31T12:35:14.028Z,51.33
2019-01-31T12:37:43.972Z,51.63
2019-01-31T12:40:16.034Z,54.93
2019-01-31T12:42:45.962Z,53.30
2019-01-31T12:45:17.352Z,49.00
2019-01-31T12:47:47.218Z,53.23
2019-01-31T12:50:22.389Z,49.83
2019-01-31T12:52:52.335Z,55.37
2019-01-31T12:55:22.266Z,48.93
2019-01-31T12:57:52.196Z,52.67
2019-01-31T13:00:26.978Z,49.57
2019-01-31T13:02:57.212Z,53.80
2019-01-31T13:05:27.087Z,46.80
2019-01-31T13:07:57.073Z,39.90
2019-01-31T13:10:27.114Z,41.93
2019-01-31T13:12:58.125Z,43.87
2019-01-31T13:15:29.463Z,43.70
2019-01-31T13:17:59.860Z,51.10
2019-01-31T13:20:30.036Z,52.53
2019-01-31T13:22:59.921Z,46.83
2019-01-31T13:25:30.271Z,48.43
2019-01-31T13:28:00.184Z,47.63
2019-01-31T13:30:30.176Z,44.87
2019-01-31T13:33:00.340Z,40.37
2019-01-31T13:35:30.219Z,38.50
2019-01-31T13:38:00.419Z,35.07
2019-01-31T13:40:30.562Z,36.90
2019-01-31T13:43:00.556Z,34.40
2019-01-31T13:45:36.198Z,36.83
2019-01-31T13:48:12.224Z,35.57
2019-01-31T13:50:42.473Z,37.20
2019-01-31T13:53:12.623Z,36.63
2019-01-31T13:55:42.840Z,38.43
2019-01-31T13:58:13.379Z,36.43
2019-01-31T14:00:43.995Z,33.23
2019-01-31T14:03:14.747Z,31.30
2019-01-31T14:05:45.174Z,32.40
2019-01-31T14:08:15.839Z,31.27
2019-01-31T14:10:45.793Z,32.40
2019-01-31T14:13:16.037Z,31.27
2019-01-31T14:15:46.454Z,36.57
2019-01-31T14:18:16.707Z,34.03
2019-01-31T14:20:47.198Z,32.43
2019-01-31T14:23:17.564Z,57.90
2019-01-31T14:25:47.433Z,32.60
2019-01-31T14:28:17.078Z,33.83
2019-01-31T14:30:46.720Z,36.83
2019-01-31T14:33:24.076Z,35.47
2019-01-31T14:35:53.900Z,33.83
2019-01-31T14:38:23.770Z,33.70
2019-01-31T14:40:53.451Z,35.30
2019-01-31T14:43:23.219Z,37.37
2019-01-31T14:45:52.949Z,35.57
2019-01-31T14:48:22.695Z,35.10
2019-01-31T14:50:52.436Z,37.67
2019-01-31T14:53:22.127Z,38.77
2019-01-31T14:55:51.864Z,40.27
2019-01-31T14:58:21.604Z,39.57
2019-01-31T15:00:51.316Z,38.47
2019-01-31T15:03:21.007Z,37.40
2019-01-31T15:05:50.658Z,35.93
2019-01-31T15:08:20.282Z,37.40
2019-01-31T15:10:50.016Z,37.17
2019-01-31T15:13:19.789Z,38.20
2019-01-31T15:15:49.481Z,38.63
2019-01-31T15:18:19.225Z,35.80
2019-01-31T15:20:48.861Z,40.70
2019-01-31T15:23:18.511Z,38.43
2019-01-31T15:25:48.231Z,37.77
2019-01-31T15:28:17.903Z,40.63
2019-01-31T15:30:47.518Z,40.90
2019-01-31T15:33:17.211Z,42.93
2019-01-31T15:35:46.842Z,43.67
2019-01-31T15:38:16.479Z,42.30
2019-01-31T15:40:48.282Z,44.30
2019-01-31T15:43:18.054Z,41.90
2019-01-31T15:45:47.872Z,41.70
2019-01-31T15:48:18.147Z,43.20
2019-01-31T15:50:47.804Z,43.07
2019-01-31T15:53:17.577Z,45.47
2019-01-31T15:55:47.547Z,43.40
2019-01-31T15:58:17.234Z,41.13
2019-01-31T16:00:52.701Z,38.73
2019-01-31T16:03:23.777Z,41.57
2019-01-31T16:05:53.647Z,43.57
2019-01-31T16:08:23.583Z,42.97
2019-01-31T16:10:53.232Z,44.00
2019-01-31T16:13:22.893Z,45.67
2019-01-31T16:15:52.770Z,45.23
2019-01-31T16:18:22.600Z,44.37
2019-01-31T16:20:52.218Z,46.40
2019-01-31T16:23:21.991Z,44.43
2019-01-31T16:25:51.644Z,46.93
2019-01-31T16:28:21.267Z,50.50
2019-01-31T16:30:51.051Z,46.00
2019-01-31T16:33:20.677Z,48.73
2019-01-31T16:35:53.726Z,41.00
2019-01-31T16:38:24.054Z,40.77
2019-01-31T16:40:54.015Z,42.03
2019-01-31T16:43:24.050Z,40.17
2019-01-31T16:45:53.870Z,39.80
2019-01-31T16:48:23.497Z,36.60
2019-01-31T16:50:53.138Z,38.77
2019-01-31T16:53:22.779Z,35.87
2019-01-31T16:55:55.043Z,35.90
2019-01-31T16:58:23.816Z,34.20
2019-01-31T17:00:53.507Z,36.17
2019-01-31T17:03:23.186Z,36.50
2019-01-31T17:05:53.004Z,35.17
2019-01-31T17:08:22.820Z,34.20
2019-01-31T17:10:52.531Z,29.77
2019-01-31T17:13:22.211Z,29.10
2019-01-31T17:15:52.106Z,28.37
2019-01-31T17:18:21.792Z,27.30
2019-01-31T17:20:51.402Z,30.83
2019-01-31T17:23:21.051Z,29.40
2019-01-31T17:25:50.703Z,28.50
2019-01-31T17:28:20.332Z,22.23
2019-01-31T17:30:50.010Z,11.30
2019-01-31T17:33:19.623Z,6.97
2019-01-31T17:35:49.236Z,5.80
2019-01-31T17:38:19.007Z,4.97
2019-01-31T17:40:48.698Z,8.60
2019-01-31T17:43:18.325Z,13.47
2019-01-31T17:45:48.124Z,13.60
2019-01-31T17:48:17.854Z,13.50
2019-01-31T17:50:48.068Z,15.53
2019-01-31T17:53:17.983Z,15.90
2019-01-31T17:55:47.696Z,20.07
2019-01-31T17:58:17.307Z,23.00
2019-01-31T18:00:56.225Z,22.50
2019-01-31T18:03:26.088Z,19.37
2019-01-31T18:05:55.759Z,16.40
2019-01-31T18:08:25.465Z,9.90
2019-01-31T18:10:55.100Z,11.50
2019-01-31T18:13:24.735Z,12.63
2019-01-31T18:15:54.428Z,8.90
2019-01-31T18:18:24.016Z,5.77
2019-01-31T18:20:53.758Z,5.90
2019-01-31T18:23:23.501Z,4.23
2019-01-31T18:25:53.086Z,2.93
2019-01-31T18:28:22.698Z,2.70
2019-01-31T18:30:52.321Z,2.57
2019-01-31T18:33:22.055Z,1.70
2019-01-31T18:35:51.732Z,2.20
2019-01-31T18:38:21.495Z,1.60
2019-01-31T18:40:51.208Z,2.47
2019-01-31T18:43:20.818Z,1.10
2019-01-31T18:45:53.318Z,1.20
2019-01-31T18:48:21.984Z,1.30
2019-01-31T18:50:51.753Z,1.33
2019-01-31T18:53:21.467Z,1.33
2019-01-31T18:55:51.085Z,1.70
2019-01-31T18:58:20.716Z,1.47
2019-01-31T19:00:51.313Z,3.17
2019-01-31T19:03:21.046Z,1.10
2019-01-31T19:05:50.928Z,1.30
2019-01-31T19:08:20.626Z,1.30
2019-01-31T19:10:50.455Z,0.90
2019-01-31T19:13:20.055Z,1.33
2019-01-31T19:15:49.842Z,2.77
2019-01-31T19:18:19.526Z,1.30
2019-01-31T19:20:49.152Z,0.97
2019-01-31T19:23:18.895Z,0.70
2019-01-31T19:25:48.546Z,0.73
2019-01-31T19:28:55.367Z,0.90
2019-01-31T19:32:07.808Z,0.80
2019-01-31T19:34:37.443Z,0.80
2019-01-31T19:37:07.210Z,0.77
2019-01-31T19:39:36.835Z,0.87
2019-01-31T19:42:06.609Z,0.80
2019-01-31T19:44:36.249Z,1.13
2019-01-31T19:47:05.970Z,1.70
2019-01-31T19:49:35.718Z,1.27
2019-01-31T19:52:05.541Z,1.37
2019-01-31T19:54:35.294Z,2.23
2019-01-31T19:57:04.974Z,1.30
2019-01-31T19:59:34.703Z,0.93
2019-01-31T20:02:04.576Z,0.83
2019-01-31T20:04:34.820Z,0.93
2019-01-31T20:07:04.759Z,1.10
2019-01-31T20:09:34.446Z,0.90
2019-01-31T20:12:05.102Z,1.20
2019-01-31T20:14:34.727Z,1.10
2019-01-31T20:17:08.488Z,0.87
2019-01-31T20:19:38.022Z,1.03
2019-01-31T20:22:07.823Z,1.00
2019-01-31T20:24:37.517Z,1.17
2019-01-31T20:27:07.391Z,6.30
2019-01-31T20:29:37.044Z,3.23
2019-01-31T20:32:06.971Z,1.43
2019-01-31T20:34:37.927Z,1.40
2019-01-31T20:37:07.658Z,1.07
2019-01-31T20:39:37.262Z,1.33
2019-01-31T20:42:07.011Z,0.83
2019-01-31T20:44:36.648Z,1.67
2019-01-31T20:47:06.443Z,1.20
2019-01-31T20:49:36.339Z,0.80
2019-01-31T20:52:06.075Z,1.23
2019-01-31T20:54:35.672Z,0.77
2019-01-31T20:57:05.497Z,1.10
2019-01-31T20:59:35.326Z,1.23
2019-01-31T21:02:05.183Z,1.23
2019-01-31T21:04:37.241Z,0.80
2019-01-31T21:07:06.628Z,1.00
2019-01-31T21:09:36.248Z,1.43
2019-01-31T21:12:06.362Z,1.10
2019-01-31T21:14:35.983Z,1.83
2019-01-31T21:17:05.773Z,1.70
2019-01-31T21:19:35.445Z,1.40
2019-01-31T21:22:05.093Z,1.47
2019-01-31T21:24:34.990Z,1.77
2019-01-31T21:27:04.756Z,1.60
2019-01-31T21:29:34.414Z,1.77
2019-01-31T21:32:04.252Z,1.30
2019-01-31T21:34:40.893Z,1.33
2019-01-31T21:37:10.683Z,1.60
2019-01-31T21:39:40.299Z,4.13
2019-01-31T21:42:10.100Z,1.60
2019-01-31T21:44:39.786Z,2.10
2019-01-31T21:47:09.471Z,2.10
2019-01-31T21:49:39.196Z,1.47
2019-01-31T21:52:08.964Z,2.30
2019-01-31T21:54:38.578Z,4.20
2019-01-31T21:57:08.247Z,2.50
2019-01-31T21:59:37.898Z,2.53
2019-01-31T22:02:07.514Z,1.80
2019-01-31T22:04:37.302Z,1.53
2019-01-31T22:07:06.905Z,2.20
2019-01-31T22:09:36.571Z,1.77
2019-01-31T22:12:06.450Z,1.60
2019-01-31T22:14:36.098Z,1.70
2019-01-31T22:17:14.167Z,1.47
2019-01-31T22:19:37.340Z,1.77
2019-01-31T22:22:07.072Z,1.50
2019-01-31T22:24:36.647Z,2.73
2019-01-31T22:27:06.443Z,2.30
2019-01-31T22:29:36.189Z,2.10
2019-01-31T22:32:06.146Z,1.80
2019-01-31T22:34:36.636Z,1.43
2019-01-31T22:37:06.366Z,1.93
2019-01-31T22:39:36.054Z,1.63
2019-01-31T22:42:05.921Z,2.33
2019-01-31T22:44:35.540Z,1.43
2019-01-31T22:47:05.222Z,1.37
2019-01-31T22:49:34.876Z,1.40
2019-01-31T22:52:04.788Z,1.50
2019-01-31T22:54:34.502Z,1.40
2019-01-31T22:57:04.163Z,1.20
2019-01-31T22:59:33.796Z,1.40
2019-01-31T23:02:10.338Z,1.67
2019-01-31T23:04:39.934Z,2.17
2019-01-31T23:07:09.702Z,2.53
2019-01-31T23:09:40.483Z,2.13
2019-01-31T23:12:10.133Z,2.00
2019-01-31T23:14:39.786Z,1.63
2019-01-31T23:17:09.437Z,2.23
2019-01-31T23:19:39.028Z,2.30
2019-01-31T23:22:08.808Z,2.30
2019-01-31T23:24:38.579Z,2.93
2019-01-31T23:27:09.198Z,1.90
2019-01-31T23:29:38.847Z,2.67
2019-01-31T23:32:08.674Z,2.57
2019-01-31T23:34:38.369Z,2.73
2019-01-31T23:37:08.055Z,2.03
2019-01-31T23:39:37.871Z,2.20
2019-01-31T23:42:07.630Z,3.23
2019-01-31T23:44:37.245Z,2.00
2019-01-31T23:47:06.962Z,2.20
2019-01-31T23:49:36.620Z,3.77
2019-01-31T23:52:06.312Z,2.83
2019-01-31T23:54:35.974Z,3.87
2019-01-31T23:57:05.717Z,3.33
2019-01-31T23:59:35.324Z,4.50
